Akron, Colorado
Current Conditions -  °F | °C
As of 10:53 AM on Monday 26 Jan 2015 (Local Time) from KAKO Reporting Station
Clear Clear  
Wind Chill: 52°   Ceiling: Unl
Heat Index: 52°   Visibility: 10mi
Dew Point: 30°   Wind: 8mph
Humidity: 43%   Direction: 300°WNW
Pressure: 30.24"   Gusts: NA
Location:  40.16°N, 103.21°W
Report Text: KAKO 261753Z AUTO 30007KT 10SM CLR 11/M01 A3024 RMK AO2 SLP237 T01111011 10111 20011 51010
Loading
Personal Weather Stations






























Interactive Weather Map New forecast layout! Learn more

10-Day Weather Forecast

Advertisements
Track Severe Weather on mobile